sensor_id;sensor_type;location;lat;lon;timestamp;temperature;humidity
39189;DHT22;24915;50.858;4.376;2023-02-28T00:00:34;3.10;99.90
39189;DHT22;24915;50.858;4.376;2023-02-28T00:03:01;3.10;99.90
39189;DHT22;24915;50.858;4.376;2023-02-28T00:05:28;3.00;99.90
39189;DHT22;24915;50.858;4.376;2023-02-28T00:07:54;3.00;99.90
39189;DHT22;24915;50.858;4.376;2023-02-28T00:10:26;3.00;99.90
39189;DHT22;24915;50.858;4.376;2023-02-28T00:12:54;3.00;99.90
39189;DHT22;24915;50.858;4.376;2023-02-28T00:15:22;3.00;99.90
39189;DHT22;24915;50.858;4.376;2023-02-28T00:17:48;3.00;99.90
39189;DHT22;24915;50.858;4.376;2023-02-28T00:20:14;3.00;99.90
39189;DHT22;24915;50.858;4.376;2023-02-28T00:22:43;3.00;99.90
39189;DHT22;24915;50.858;4.376;2023-02-28T00:25:11;2.90;99.90
39189;DHT22;24915;50.858;4.376;2023-02-28T00:27:38;2.90;99.90
39189;DHT22;24915;50.858;4.376;2023-02-28T00:30:05;2.90;99.90
39189;DHT22;24915;50.858;4.376;2023-02-28T00:32:31;2.90;99.90
39189;DHT22;24915;50.858;4.376;2023-02-28T00:34:57;2.90;99.90
39189;DHT22;24915;50.858;4.376;2023-02-28T00:37:23;2.90;99.90
39189;DHT22;24915;50.858;4.376;2023-02-28T00:39:48;2.80;99.90
39189;DHT22;24915;50.858;4.376;2023-02-28T00:42:14;2.80;99.90
39189;DHT22;24915;50.858;4.376;2023-02-28T00:44:39;2.80;99.90
39189;DHT22;24915;50.858;4.376;2023-02-28T00:47:05;2.70;99.90
39189;DHT22;24915;50.858;4.376;2023-02-28T00:49:31;2.70;99.90
39189;DHT22;24915;50.858;4.376;2023-02-28T00:51:57;2.70;99.90
39189;DHT22;24915;50.858;4.376;2023-02-28T00:54:24;2.70;99.90
39189;DHT22;24915;50.858;4.376;2023-02-28T00:56:50;2.60;99.90
39189;DHT22;24915;50.858;4.376;2023-02-28T00:59:17;2.60;99.90
39189;DHT22;24915;50.858;4.376;2023-02-28T01:01:44;2.60;99.90
39189;DHT22;24915;50.858;4.376;2023-02-28T01:04:10;2.60;99.90
39189;DHT22;24915;50.858;4.376;2023-02-28T01:06:36;2.60;99.90
39189;DHT22;24915;50.858;4.376;2023-02-28T01:09:04;2.60;99.90
39189;DHT22;24915;50.858;4.376;2023-02-28T01:11:30;2.50;99.90
39189;DHT22;24915;50.858;4.376;2023-02-28T01:13:56;2.50;99.90
39189;DHT22;24915;50.858;4.376;2023-02-28T01:16:22;2.50;99.90
39189;DHT22;24915;50.858;4.376;2023-02-28T01:18:48;2.50;99.90
39189;DHT22;24915;50.858;4.376;2023-02-28T01:21:19;2.50;99.90
39189;DHT22;24915;50.858;4.376;2023-02-28T01:23:45;2.60;99.90
39189;DHT22;24915;50.858;4.376;2023-02-28T01:26:16;2.60;99.90
39189;DHT22;24915;50.858;4.376;2023-02-28T01:28:42;2.60;99.90
39189;DHT22;24915;50.858;4.376;2023-02-28T01:31:09;2.50;99.90
39189;DHT22;24915;50.858;4.376;2023-02-28T01:33:35;2.50;99.90
39189;DHT22;24915;50.858;4.376;2023-02-28T01:36:27;2.50;99.90
39189;DHT22;24915;50.858;4.376;2023-02-28T01:38:52;2.50;99.90
39189;DHT22;24915;50.858;4.376;2023-02-28T01:41:22;2.50;99.90
39189;DHT22;24915;50.858;4.376;2023-02-28T01:46:14;2.50;99.90
39189;DHT22;24915;50.858;4.376;2023-02-28T01:48:46;2.40;99.90
39189;DHT22;24915;50.858;4.376;2023-02-28T01:51:17;2.40;99.90
39189;DHT22;24915;50.858;4.376;2023-02-28T01:53:56;2.40;99.90
39189;DHT22;24915;50.858;4.376;2023-02-28T01:56:27;2.40;99.90
39189;DHT22;24915;50.858;4.376;2023-02-28T01:58:55;2.30;99.90
39189;DHT22;24915;50.858;4.376;2023-02-28T02:01:22;2.30;99.90
39189;DHT22;24915;50.858;4.376;2023-02-28T02:03:53;2.30;99.90
39189;DHT22;24915;50.858;4.376;2023-02-28T02:06:21;2.30;99.90
39189;DHT22;24915;50.858;4.376;2023-02-28T02:08:47;2.20;99.90
39189;DHT22;24915;50.858;4.376;2023-02-28T02:11:17;2.20;99.90
39189;DHT22;24915;50.858;4.376;2023-02-28T02:14:02;2.20;99.90
39189;DHT22;24915;50.858;4.376;2023-02-28T02:20:13;2.10;99.90
39189;DHT22;24915;50.858;4.376;2023-02-28T02:26:03;2.10;99.90
39189;DHT22;24915;50.858;4.376;2023-02-28T02:28:57;2.10;99.90
39189;DHT22;24915;50.858;4.376;2023-02-28T02:40:14;2.00;99.90
39189;DHT22;24915;50.858;4.376;2023-02-28T02:42:51;2.00;99.90
39189;DHT22;24915;50.858;4.376;2023-02-28T02:45:22;2.00;99.90
39189;DHT22;24915;50.858;4.376;2023-02-28T02:47:50;2.00;99.90
39189;DHT22;24915;50.858;4.376;2023-02-28T02:50:24;2.00;99.90
39189;DHT22;24915;50.858;4.376;2023-02-28T02:52:55;2.00;99.90
39189;DHT22;24915;50.858;4.376;2023-02-28T02:55:22;2.00;99.90
39189;DHT22;24915;50.858;4.376;2023-02-28T02:57:55;2.00;99.90
39189;DHT22;24915;50.858;4.376;2023-02-28T03:00:31;2.00;99.90
39189;DHT22;24915;50.858;4.376;2023-02-28T03:02:58;1.90;99.90
39189;DHT22;24915;50.858;4.376;2023-02-28T03:05:27;2.00;99.90
39189;DHT22;24915;50.858;4.376;2023-02-28T03:07:55;1.90;99.90
39189;DHT22;24915;50.858;4.376;2023-02-28T03:10:39;1.90;99.90
39189;DHT22;24915;50.858;4.376;2023-02-28T03:13:11;1.90;99.90
39189;DHT22;24915;50.858;4.376;2023-02-28T03:21:22;1.80;99.90
39189;DHT22;24915;50.858;4.376;2023-02-28T03:26:27;1.80;99.90
39189;DHT22;24915;50.858;4.376;2023-02-28T03:31:58;1.80;99.90
39189;DHT22;24915;50.858;4.376;2023-02-28T03:34:36;1.80;99.90
39189;DHT22;24915;50.858;4.376;2023-02-28T03:37:11;1.80;99.90
39189;DHT22;24915;50.858;4.376;2023-02-28T03:39:57;1.70;99.90
39189;DHT22;24915;50.858;4.376;2023-02-28T03:42:30;1.70;99.90
39189;DHT22;24915;50.858;4.376;2023-02-28T03:45:11;1.70;99.90
39189;DHT22;24915;50.858;4.376;2023-02-28T03:47:52;1.70;99.90
39189;DHT22;24915;50.858;4.376;2023-02-28T03:50:22;1.70;99.90
39189;DHT22;24915;50.858;4.376;2023-02-28T03:53:10;1.70;99.90
39189;DHT22;24915;50.858;4.376;2023-02-28T03:55:47;1.60;99.90
39189;DHT22;24915;50.858;4.376;2023-02-28T04:01:36;1.70;99.90
39189;DHT22;24915;50.858;4.376;2023-02-28T04:04:04;1.60;99.90
39189;DHT22;24915;50.858;4.376;2023-02-28T04:06:32;1.60;99.90
39189;DHT22;24915;50.858;4.376;2023-02-28T04:08:58;1.60;99.90
39189;DHT22;24915;50.858;4.376;2023-02-28T04:11:33;1.60;99.90
39189;DHT22;24915;50.858;4.376;2023-02-28T04:14:01;1.60;99.90
39189;DHT22;24915;50.858;4.376;2023-02-28T04:16:27;1.60;99.90
39189;DHT22;24915;50.858;4.376;2023-02-28T04:18:53;1.60;99.90
39189;DHT22;24915;50.858;4.376;2023-02-28T04:21:19;1.60;99.90
39189;DHT22;24915;50.858;4.376;2023-02-28T04:23:47;1.60;99.90
39189;DHT22;24915;50.858;4.376;2023-02-28T04:26:13;1.60;99.90
39189;DHT22;24915;50.858;4.376;2023-02-28T04:28:39;1.50;99.90
39189;DHT22;24915;50.858;4.376;2023-02-28T04:31:05;1.60;99.90
39189;DHT22;24915;50.858;4.376;2023-02-28T04:33:31;1.50;99.90
39189;DHT22;24915;50.858;4.376;2023-02-28T04:36:06;1.50;99.90
39189;DHT22;24915;50.858;4.376;2023-02-28T04:38:35;1.50;99.90
39189;DHT22;24915;50.858;4.376;2023-02-28T04:41:01;1.40;99.90
39189;DHT22;24915;50.858;4.376;2023-02-28T04:43:28;1.40;99.90
39189;DHT22;24915;50.858;4.376;2023-02-28T04:45:54;1.40;99.90
39189;DHT22;24915;50.858;4.376;2023-02-28T04:48:23;1.40;99.90
39189;DHT22;24915;50.858;4.376;2023-02-28T04:50:50;1.40;99.90
39189;DHT22;24915;50.858;4.376;2023-02-28T04:53:16;1.40;99.90
39189;DHT22;24915;50.858;4.376;2023-02-28T04:55:42;1.40;99.90
39189;DHT22;24915;50.858;4.376;2023-02-28T04:58:08;1.40;99.90
39189;DHT22;24915;50.858;4.376;2023-02-28T05:00:33;1.40;99.90
39189;DHT22;24915;50.858;4.376;2023-02-28T05:02:59;1.50;99.90
39189;DHT22;24915;50.858;4.376;2023-02-28T05:05:25;1.50;99.90
39189;DHT22;24915;50.858;4.376;2023-02-28T05:07:50;1.50;99.90
39189;DHT22;24915;50.858;4.376;2023-02-28T05:10:16;1.50;99.90
39189;DHT22;24915;50.858;4.376;2023-02-28T05:12:42;1.50;99.90
39189;DHT22;24915;50.858;4.376;2023-02-28T05:15:12;1.50;99.90
39189;DHT22;24915;50.858;4.376;2023-02-28T05:17:37;1.50;99.90
39189;DHT22;24915;50.858;4.376;2023-02-28T05:20:03;1.60;99.90
39189;DHT22;24915;50.858;4.376;2023-02-28T05:22:30;1.60;99.90
39189;DHT22;24915;50.858;4.376;2023-02-28T05:24:56;1.60;99.90
39189;DHT22;24915;50.858;4.376;2023-02-28T05:27:21;1.60;99.90
39189;DHT22;24915;50.858;4.376;2023-02-28T05:29:48;1.60;99.90
39189;DHT22;24915;50.858;4.376;2023-02-28T05:32:13;1.60;99.90
39189;DHT22;24915;50.858;4.376;2023-02-28T05:34:40;1.60;99.90
39189;DHT22;24915;50.858;4.376;2023-02-28T05:37:07;1.60;99.90
39189;DHT22;24915;50.858;4.376;2023-02-28T05:39:36;1.60;99.90
39189;DHT22;24915;50.858;4.376;2023-02-28T05:42:02;1.60;99.90
39189;DHT22;24915;50.858;4.376;2023-02-28T05:44:27;1.60;99.90
39189;DHT22;24915;50.858;4.376;2023-02-28T05:46:53;1.70;99.90
39189;DHT22;24915;50.858;4.376;2023-02-28T05:49:19;1.70;99.90
39189;DHT22;24915;50.858;4.376;2023-02-28T05:51:44;1.70;99.90
39189;DHT22;24915;50.858;4.376;2023-02-28T05:54:10;1.70;99.90
39189;DHT22;24915;50.858;4.376;2023-02-28T05:56:35;1.80;99.90
39189;DHT22;24915;50.858;4.376;2023-02-28T05:59:04;1.80;99.90
39189;DHT22;24915;50.858;4.376;2023-02-28T06:01:43;1.80;99.90
39189;DHT22;24915;50.858;4.376;2023-02-28T06:04:15;1.90;99.90
39189;DHT22;24915;50.858;4.376;2023-02-28T06:06:47;1.90;99.90
39189;DHT22;24915;50.858;4.376;2023-02-28T06:09:13;1.90;99.90
39189;DHT22;24915;50.858;4.376;2023-02-28T06:11:39;1.90;99.90
39189;DHT22;24915;50.858;4.376;2023-02-28T06:14:05;1.90;99.90
39189;DHT22;24915;50.858;4.376;2023-02-28T06:16:33;2.00;99.90
39189;DHT22;24915;50.858;4.376;2023-02-28T06:19:02;2.00;99.90
39189;DHT22;24915;50.858;4.376;2023-02-28T06:21:28;2.00;99.90
39189;DHT22;24915;50.858;4.376;2023-02-28T06:23:55;2.10;99.90
39189;DHT22;24915;50.858;4.376;2023-02-28T06:26:22;2.10;99.90
39189;DHT22;24915;50.858;4.376;2023-02-28T06:28:48;2.10;99.90
39189;DHT22;24915;50.858;4.376;2023-02-28T06:31:16;2.10;99.90
39189;DHT22;24915;50.858;4.376;2023-02-28T06:33:43;2.10;99.90
39189;DHT22;24915;50.858;4.376;2023-02-28T06:36:11;2.10;99.90
39189;DHT22;24915;50.858;4.376;2023-02-28T06:38:38;2.20;99.90
39189;DHT22;24915;50.858;4.376;2023-02-28T06:41:05;2.20;99.90
39189;DHT22;24915;50.858;4.376;2023-02-28T06:43:33;2.20;99.90
39189;DHT22;24915;50.858;4.376;2023-02-28T06:46:01;2.20;99.90
39189;DHT22;24915;50.858;4.376;2023-02-28T06:48:27;2.20;99.90
39189;DHT22;24915;50.858;4.376;2023-02-28T06:51:15;2.20;99.90
39189;DHT22;24915;50.858;4.376;2023-02-28T06:53:42;2.20;99.90
39189;DHT22;24915;50.858;4.376;2023-02-28T06:56:13;2.20;99.90
39189;DHT22;24915;50.858;4.376;2023-02-28T06:58:39;2.30;99.90
39189;DHT22;24915;50.858;4.376;2023-02-28T07:01:05;2.40;99.90
39189;DHT22;24915;50.858;4.376;2023-02-28T07:03:31;2.60;99.90
39189;DHT22;24915;50.858;4.376;2023-02-28T07:05:57;2.70;99.90
39189;DHT22;24915;50.858;4.376;2023-02-28T07:08:24;2.90;99.90
39189;DHT22;24915;50.858;4.376;2023-02-28T07:10:56;3.00;99.90
39189;DHT22;24915;50.858;4.376;2023-02-28T07:13:23;3.20;99.90
39189;DHT22;24915;50.858;4.376;2023-02-28T07:16:00;3.40;99.90
39189;DHT22;24915;50.858;4.376;2023-02-28T07:18:26;3.50;99.90
39189;DHT22;24915;50.858;4.376;2023-02-28T07:20:53;3.70;99.90
39189;DHT22;24915;50.858;4.376;2023-02-28T07:23:18;3.80;99.90
39189;DHT22;24915;50.858;4.376;2023-02-28T07:25:44;3.90;99.90
39189;DHT22;24915;50.858;4.376;2023-02-28T07:28:11;3.90;99.90
39189;DHT22;24915;50.858;4.376;2023-02-28T07:30:37;3.90;99.90
39189;DHT22;24915;50.858;4.376;2023-02-28T07:33:03;3.90;99.90
39189;DHT22;24915;50.858;4.376;2023-02-28T07:35:29;4.10;99.90
39189;DHT22;24915;50.858;4.376;2023-02-28T07:37:58;4.10;99.90
39189;DHT22;24915;50.858;4.376;2023-02-28T07:40:23;4.20;99.90
39189;DHT22;24915;50.858;4.376;2023-02-28T07:42:49;4.40;99.90
39189;DHT22;24915;50.858;4.376;2023-02-28T07:45:15;4.70;99.90
39189;DHT22;24915;50.858;4.376;2023-02-28T07:47:42;4.90;99.90
39189;DHT22;24915;50.858;4.376;2023-02-28T07:50:10;5.00;99.90
39189;DHT22;24915;50.858;4.376;2023-02-28T07:52:37;5.20;99.90
39189;DHT22;24915;50.858;4.376;2023-02-28T07:55:03;5.30;99.90
39189;DHT22;24915;50.858;4.376;2023-02-28T07:57:30;5.50;99.90
39189;DHT22;24915;50.858;4.376;2023-02-28T07:59:55;5.60;99.90
39189;DHT22;24915;50.858;4.376;2023-02-28T08:02:21;5.80;99.90
39189;DHT22;24915;50.858;4.376;2023-02-28T08:04:47;5.90;99.90
39189;DHT22;24915;50.858;4.376;2023-02-28T08:07:14;6.00;99.90
39189;DHT22;24915;50.858;4.376;2023-02-28T08:09:40;6.10;99.90
39189;DHT22;24915;50.858;4.376;2023-02-28T08:12:07;6.20;99.90
39189;DHT22;24915;50.858;4.376;2023-02-28T08:14:33;6.30;99.90
39189;DHT22;24915;50.858;4.376;2023-02-28T08:16:58;6.40;99.90
39189;DHT22;24915;50.858;4.376;2023-02-28T08:19:24;6.60;99.90
39189;DHT22;24915;50.858;4.376;2023-02-28T08:21:49;6.60;99.90
39189;DHT22;24915;50.858;4.376;2023-02-28T08:24:15;6.80;99.90
39189;DHT22;24915;50.858;4.376;2023-02-28T08:26:41;6.90;99.90
39189;DHT22;24915;50.858;4.376;2023-02-28T08:29:06;6.90;99.90
39189;DHT22;24915;50.858;4.376;2023-02-28T08:31:32;6.90;99.90
39189;DHT22;24915;50.858;4.376;2023-02-28T08:33:58;6.90;99.30
39189;DHT22;24915;50.858;4.376;2023-02-28T08:36:25;7.00;99.90
39189;DHT22;24915;50.858;4.376;2023-02-28T08:38:53;7.20;99.40
39189;DHT22;24915;50.858;4.376;2023-02-28T08:41:19;7.40;98.00
39189;DHT22;24915;50.858;4.376;2023-02-28T08:43:45;7.50;96.70
39189;DHT22;24915;50.858;4.376;2023-02-28T08:46:12;7.50;96.40
39189;DHT22;24915;50.858;4.376;2023-02-28T08:48:38;7.60;95.80
39189;DHT22;24915;50.858;4.376;2023-02-28T08:51:15;7.50;95.50
39189;DHT22;24915;50.858;4.376;2023-02-28T08:53:44;7.50;95.10
39189;DHT22;24915;50.858;4.376;2023-02-28T08:56:12;7.50;95.40
39189;DHT22;24915;50.858;4.376;2023-02-28T08:58:38;7.60;94.90
39189;DHT22;24915;50.858;4.376;2023-02-28T09:01:14;7.60;94.80
39189;DHT22;24915;50.858;4.376;2023-02-28T09:03:41;7.70;94.80
39189;DHT22;24915;50.858;4.376;2023-02-28T09:06:08;7.70;93.40
39189;DHT22;24915;50.858;4.376;2023-02-28T09:08:34;7.50;92.80
39189;DHT22;24915;50.858;4.376;2023-02-28T09:11:00;7.50;93.90
39189;DHT22;24915;50.858;4.376;2023-02-28T09:13:27;7.60;93.50
39189;DHT22;24915;50.858;4.376;2023-02-28T09:15:54;7.60;93.10
39189;DHT22;24915;50.858;4.376;2023-02-28T09:18:20;7.60;92.60
39189;DHT22;24915;50.858;4.376;2023-02-28T09:20:45;7.50;91.40
39189;DHT22;24915;50.858;4.376;2023-02-28T09:23:12;7.50;91.70
39189;DHT22;24915;50.858;4.376;2023-02-28T09:25:48;7.50;91.80
39189;DHT22;24915;50.858;4.376;2023-02-28T09:28:15;7.70;92.40
39189;DHT22;24915;50.858;4.376;2023-02-28T09:30:41;7.90;91.60
39189;DHT22;24915;50.858;4.376;2023-02-28T09:33:07;8.00;91.40
39189;DHT22;24915;50.858;4.376;2023-02-28T09:35:33;8.10;89.20
39189;DHT22;24915;50.858;4.376;2023-02-28T09:37:58;8.00;90.20
39189;DHT22;24915;50.858;4.376;2023-02-28T09:40:25;8.00;90.30
39189;DHT22;24915;50.858;4.376;2023-02-28T09:42:53;8.10;90.40
39189;DHT22;24915;50.858;4.376;2023-02-28T09:45:32;8.20;89.90
39189;DHT22;24915;50.858;4.376;2023-02-28T09:48:06;8.40;89.20
39189;DHT22;24915;50.858;4.376;2023-02-28T09:51:23;8.50;87.40
39189;DHT22;24915;50.858;4.376;2023-02-28T09:53:31;8.80;88.00
39189;DHT22;24915;50.858;4.376;2023-02-28T09:56:04;8.90;85.60
39189;DHT22;24915;50.858;4.376;2023-02-28T09:58:47;8.90;84.30
39189;DHT22;24915;50.858;4.376;2023-02-28T10:01:25;8.90;82.70
39189;DHT22;24915;50.858;4.376;2023-02-28T10:04:00;8.90;81.60
39189;DHT22;24915;50.858;4.376;2023-02-28T10:06:34;8.90;79.80
39189;DHT22;24915;50.858;4.376;2023-02-28T10:09:11;8.90;81.10
39189;DHT22;24915;50.858;4.376;2023-02-28T10:11:40;8.90;79.10
39189;DHT22;24915;50.858;4.376;2023-02-28T10:14:19;9.00;80.20
39189;DHT22;24915;50.858;4.376;2023-02-28T10:16:56;9.10;79.10
39189;DHT22;24915;50.858;4.376;2023-02-28T10:19:33;9.10;78.90
39189;DHT22;24915;50.858;4.376;2023-02-28T10:22:14;9.10;79.30
39189;DHT22;24915;50.858;4.376;2023-02-28T10:24:52;9.10;78.40
39189;DHT22;24915;50.858;4.376;2023-02-28T10:27:27;9.40;77.80
39189;DHT22;24915;50.858;4.376;2023-02-28T10:29:59;9.40;78.70
39189;DHT22;24915;50.858;4.376;2023-02-28T10:32:34;9.50;76.00
39189;DHT22;24915;50.858;4.376;2023-02-28T10:37:32;9.30;74.10
39189;DHT22;24915;50.858;4.376;2023-02-28T10:40:04;9.30;74.30
39189;DHT22;24915;50.858;4.376;2023-02-28T10:42:31;9.40;71.70
39189;DHT22;24915;50.858;4.376;2023-02-28T10:45:16;9.40;69.50
39189;DHT22;24915;50.858;4.376;2023-02-28T10:47:57;9.70;71.90
39189;DHT22;24915;50.858;4.376;2023-02-28T10:53:22;9.90;67.20
39189;DHT22;24915;50.858;4.376;2023-02-28T10:56:15;10.10;70.20
39189;DHT22;24915;50.858;4.376;2023-02-28T10:59:01;10.30;67.40
39189;DHT22;24915;50.858;4.376;2023-02-28T11:03:55;10.80;68.60
39189;DHT22;24915;50.858;4.376;2023-02-28T11:06:34;11.00;66.70
39189;DHT22;24915;50.858;4.376;2023-02-28T11:09:05;11.10;66.00
39189;DHT22;24915;50.858;4.376;2023-02-28T11:11:44;11.30;64.70
39189;DHT22;24915;50.858;4.376;2023-02-28T11:14:25;11.30;62.50
39189;DHT22;24915;50.858;4.376;2023-02-28T11:16:53;11.30;61.80
39189;DHT22;24915;50.858;4.376;2023-02-28T11:19:26;11.30;64.10
39189;DHT22;24915;50.858;4.376;2023-02-28T11:22:03;11.50;65.60
39189;DHT22;24915;50.858;4.376;2023-02-28T11:26:56;11.70;62.50
39189;DHT22;24915;50.858;4.376;2023-02-28T11:32:07;11.70;62.00
39189;DHT22;24915;50.858;4.376;2023-02-28T11:34:37;12.10;63.50
39189;DHT22;24915;50.858;4.376;2023-02-28T11:37:04;12.50;64.10
39189;DHT22;24915;50.858;4.376;2023-02-28T11:39:33;12.70;61.10
39189;DHT22;24915;50.858;4.376;2023-02-28T12:00:45;12.60;56.80
39189;DHT22;24915;50.858;4.376;2023-02-28T12:06:05;13.10;59.00
39189;DHT22;24915;50.858;4.376;2023-02-28T12:09:00;13.20;56.20
39189;DHT22;24915;50.858;4.376;2023-02-28T12:17:46;12.40;55.60
39189;DHT22;24915;50.858;4.376;2023-02-28T12:20:37;12.40;57.50
39189;DHT22;24915;50.858;4.376;2023-02-28T12:23:10;12.90;58.30
39189;DHT22;24915;50.858;4.376;2023-02-28T12:28:34;14.20;59.60
39189;DHT22;24915;50.858;4.376;2023-02-28T12:31:08;14.70;55.00
39189;DHT22;24915;50.858;4.376;2023-02-28T12:33:38;14.70;55.40
39189;DHT22;24915;50.858;4.376;2023-02-28T12:36:11;14.90;55.50
39189;DHT22;24915;50.858;4.376;2023-02-28T12:39:15;15.20;54.20
39189;DHT22;24915;50.858;4.376;2023-02-28T12:41:44;15.20;51.30
39189;DHT22;24915;50.858;4.376;2023-02-28T12:44:19;14.70;51.70
39189;DHT22;24915;50.858;4.376;2023-02-28T12:46:51;14.90;54.00
39189;DHT22;24915;50.858;4.376;2023-02-28T12:49:58;15.10;53.90
39189;DHT22;24915;50.858;4.376;2023-02-28T13:06:34;14.80;51.20
39189;DHT22;24915;50.858;4.376;2023-02-28T13:09:14;15.10;52.70
39189;DHT22;24915;50.858;4.376;2023-02-28T13:11:50;15.40;51.50
39189;DHT22;24915;50.858;4.376;2023-02-28T13:14:29;15.70;51.70
39189;DHT22;24915;50.858;4.376;2023-02-28T13:19:30;16.30;52.00
39189;DHT22;24915;50.858;4.376;2023-02-28T13:21:57;16.40;49.80
39189;DHT22;24915;50.858;4.376;2023-02-28T13:27:37;16.40;50.00
39189;DHT22;24915;50.858;4.376;2023-02-28T13:34:04;16.40;49.20
39189;DHT22;24915;50.858;4.376;2023-02-28T13:38:46;15.70;49.00
39189;DHT22;24915;50.858;4.376;2023-02-28T13:54:39;15.80;48.10
39189;DHT22;24915;50.858;4.376;2023-02-28T14:05:36;15.00;49.00
39189;DHT22;24915;50.858;4.376;2023-02-28T14:08:18;14.70;47.10
39189;DHT22;24915;50.858;4.376;2023-02-28T14:10:49;14.30;46.50
39189;DHT22;24915;50.858;4.376;2023-02-28T14:13:44;13.80;48.90
39189;DHT22;24915;50.858;4.376;2023-02-28T14:16:14;14.20;49.10
39189;DHT22;24915;50.858;4.376;2023-02-28T14:19:00;13.90;47.30
39189;DHT22;24915;50.858;4.376;2023-02-28T14:21:34;14.00;48.60
39189;DHT22;24915;50.858;4.376;2023-02-28T14:27:00;14.00;47.40
39189;DHT22;24915;50.858;4.376;2023-02-28T14:37:55;17.10;43.10
39189;DHT22;24915;50.858;4.376;2023-02-28T14:43:00;19.40;41.40
39189;DHT22;24915;50.858;4.376;2023-02-28T14:45:29;19.90;39.70
39189;DHT22;24915;50.858;4.376;2023-02-28T14:47:56;19.90;39.60
39189;DHT22;24915;50.858;4.376;2023-02-28T14:50:34;20.30;38.80
39189;DHT22;24915;50.858;4.376;2023-02-28T14:53:01;21.20;38.80
39189;DHT22;24915;50.858;4.376;2023-02-28T14:55:30;21.90;37.70
39189;DHT22;24915;50.858;4.376;2023-02-28T14:58:02;22.70;36.90
39189;DHT22;24915;50.858;4.376;2023-02-28T15:00:34;23.30;35.60
39189;DHT22;24915;50.858;4.376;2023-02-28T15:05:51;24.10;33.80
39189;DHT22;24915;50.858;4.376;2023-02-28T15:08:17;24.30;33.50
39189;DHT22;24915;50.858;4.376;2023-02-28T15:10:55;24.40;32.90
39189;DHT22;24915;50.858;4.376;2023-02-28T15:13:22;24.40;32.90
39189;DHT22;24915;50.858;4.376;2023-02-28T15:15:52;24.50;32.60
39189;DHT22;24915;50.858;4.376;2023-02-28T15:20:57;24.40;32.10
39189;DHT22;24915;50.858;4.376;2023-02-28T15:23:23;23.70;31.00
39189;DHT22;24915;50.858;4.376;2023-02-28T15:25:51;22.90;32.50
39189;DHT22;24915;50.858;4.376;2023-02-28T15:28:20;22.80;32.90
39189;DHT22;24915;50.858;4.376;2023-02-28T15:30:57;23.10;33.60
39189;DHT22;24915;50.858;4.376;2023-02-28T15:33:26;23.40;33.10
39189;DHT22;24915;50.858;4.376;2023-02-28T15:36:21;23.60;33.20
39189;DHT22;24915;50.858;4.376;2023-02-28T15:38:51;23.10;32.50
39189;DHT22;24915;50.858;4.376;2023-02-28T15:41:34;22.60;32.30
39189;DHT22;24915;50.858;4.376;2023-02-28T15:47:07;22.20;34.20
39189;DHT22;24915;50.858;4.376;2023-02-28T15:49:56;22.10;33.90
39189;DHT22;24915;50.858;4.376;2023-02-28T15:52:29;21.70;34.00
39189;DHT22;24915;50.858;4.376;2023-02-28T15:55:06;21.20;33.70
39189;DHT22;24915;50.858;4.376;2023-02-28T15:57:33;20.90;34.70
39189;DHT22;24915;50.858;4.376;2023-02-28T16:00:01;20.60;35.00
39189;DHT22;24915;50.858;4.376;2023-02-28T16:02:34;20.00;35.20
39189;DHT22;24915;50.858;4.376;2023-02-28T16:05:24;19.10;36.40
39189;DHT22;24915;50.858;4.376;2023-02-28T16:07:54;17.10;39.10
39189;DHT22;24915;50.858;4.376;2023-02-28T16:10:21;15.10;41.70
39189;DHT22;24915;50.858;4.376;2023-02-28T16:12:46;13.10;43.50
39189;DHT22;24915;50.858;4.376;2023-02-28T16:15:26;11.70;46.60
39189;DHT22;24915;50.858;4.376;2023-02-28T16:17:55;10.70;49.20
39189;DHT22;24915;50.858;4.376;2023-02-28T16:20:26;10.00;50.40
39189;DHT22;24915;50.858;4.376;2023-02-28T16:22:52;9.50;51.50
39189;DHT22;24915;50.858;4.376;2023-02-28T16:25:20;9.10;52.80
39189;DHT22;24915;50.858;4.376;2023-02-28T16:27:50;8.80;53.20
39189;DHT22;24915;50.858;4.376;2023-02-28T16:30:24;8.50;54.30
39189;DHT22;24915;50.858;4.376;2023-02-28T16:32:51;8.30;54.90
39189;DHT22;24915;50.858;4.376;2023-02-28T16:35:17;8.10;55.70
39189;DHT22;24915;50.858;4.376;2023-02-28T16:37:44;7.90;56.30
39189;DHT22;24915;50.858;4.376;2023-02-28T16:40:22;7.80;56.50
39189;DHT22;24915;50.858;4.376;2023-02-28T16:42:53;7.60;57.10
39189;DHT22;24915;50.858;4.376;2023-02-28T16:45:24;7.60;57.30
39189;DHT22;24915;50.858;4.376;2023-02-28T16:47:50;7.40;57.60
39189;DHT22;24915;50.858;4.376;2023-02-28T16:50:17;7.30;57.80
39189;DHT22;24915;50.858;4.376;2023-02-28T16:52:43;7.20;57.90
39189;DHT22;24915;50.858;4.376;2023-02-28T16:55:08;7.10;58.90
39189;DHT22;24915;50.858;4.376;2023-02-28T16:57:34;6.90;58.80
39189;DHT22;24915;50.858;4.376;2023-02-28T17:00:00;6.80;59.60
39189;DHT22;24915;50.858;4.376;2023-02-28T17:02:25;6.80;59.70
39189;DHT22;24915;50.858;4.376;2023-02-28T17:04:51;6.80;60.00
39189;DHT22;24915;50.858;4.376;2023-02-28T17:07:17;6.70;60.40
39189;DHT22;24915;50.858;4.376;2023-02-28T17:09:43;6.70;60.70
39189;DHT22;24915;50.858;4.376;2023-02-28T17:12:09;6.70;61.50
39189;DHT22;24915;50.858;4.376;2023-02-28T17:14:36;6.60;61.60
39189;DHT22;24915;50.858;4.376;2023-02-28T17:17:04;6.50;61.50
39189;DHT22;24915;50.858;4.376;2023-02-28T17:19:30;6.30;62.10
39189;DHT22;24915;50.858;4.376;2023-02-28T17:21:56;6.30;63.00
39189;DHT22;24915;50.858;4.376;2023-02-28T17:24:21;6.20;62.40
39189;DHT22;24915;50.858;4.376;2023-02-28T17:26:47;6.10;62.50
39189;DHT22;24915;50.858;4.376;2023-02-28T17:29:20;6.10;63.70
39189;DHT22;24915;50.858;4.376;2023-02-28T17:31:47;6.10;63.90
39189;DHT22;24915;50.858;4.376;2023-02-28T17:34:13;6.00;64.30
39189;DHT22;24915;50.858;4.376;2023-02-28T17:36:44;5.90;64.30
39189;DHT22;24915;50.858;4.376;2023-02-28T17:39:12;5.90;65.00
39189;DHT22;24915;50.858;4.376;2023-02-28T17:41:45;5.90;65.80
39189;DHT22;24915;50.858;4.376;2023-02-28T17:44:11;5.90;64.70
39189;DHT22;24915;50.858;4.376;2023-02-28T17:46:36;5.80;65.20
39189;DHT22;24915;50.858;4.376;2023-02-28T17:49:03;5.80;66.10
39189;DHT22;24915;50.858;4.376;2023-02-28T17:51:28;5.80;66.00
39189;DHT22;24915;50.858;4.376;2023-02-28T17:53:54;5.70;65.40
39189;DHT22;24915;50.858;4.376;2023-02-28T17:56:24;5.70;67.40
39189;DHT22;24915;50.858;4.376;2023-02-28T17:58:53;5.70;67.70
39189;DHT22;24915;50.858;4.376;2023-02-28T18:01:19;5.70;67.60
39189;DHT22;24915;50.858;4.376;2023-02-28T18:03:46;5.80;67.80
39189;DHT22;24915;50.858;4.376;2023-02-28T18:06:22;5.70;68.40
39189;DHT22;24915;50.858;4.376;2023-02-28T18:08:49;5.80;68.30
39189;DHT22;24915;50.858;4.376;2023-02-28T18:11:17;5.70;68.50
39189;DHT22;24915;50.858;4.376;2023-02-28T18:13:44;5.70;69.10
39189;DHT22;24915;50.858;4.376;2023-02-28T18:16:11;5.70;69.00
39189;DHT22;24915;50.858;4.376;2023-02-28T18:18:37;5.70;69.40
39189;DHT22;24915;50.858;4.376;2023-02-28T18:21:06;5.70;68.90
39189;DHT22;24915;50.858;4.376;2023-02-28T18:23:32;5.70;69.70
39189;DHT22;24915;50.858;4.376;2023-02-28T18:25:58;5.60;69.90